Bermuda/L.F. Wade International Airport

Airport
ICAO code: 
TXKF
IATA Code: 
BDA
Summary
ICAO Region: 
NAT
Territory: 
Location: 
St. George's, Bermuda
Serving: 
Hamilton
Elevation: 
16 ft
Coordinates: 
Aerial View: 
32° 21' 50" N, 64° 40' 43" W
Airport RE: 
Crosswind Landings
Metar
Observation
TXKF 170355Z 12013KT 9999 FEW033 BKN075 BKN300 19/12 Q1020
Station
Bermuda
Date/Time
2022-01-17 03:55:00
Wind direction
120°
Wind speed
13 kts
Lowest cloud amount
few clouds
Temperature
19°C
Dew point
12°C
Humidity
63%
QNH
1020 hPa
Weather condition
n/a

International airport serving island of Bermuda. It is located in the parish of St. George's and is 16 km east of Bermuda's capital city of Hamilton.

Climatology

Humid “subtropical” climate (Köppen climate classification Cfa) - characterized by hot, humid summers and cool winters. Significant amounts of precipitation occur in all seasons in most areas. Winter rainfall (and sometimes snowfall) is associated with large storms that the westerlies steer from west to east. Most summer rainfall occurs during thunderstorms.

Runways

Designator Length Width Surface Rops
12/30 2961 46 ASP Yes/Yes
Airport map: 
Aerial View: 

SKYbrary Partners:

Safety knowledge contributed by: